Terminal Aerodrome Forecast
Issued by NWS

Home | Current Version | Previous Version | Graphics & Text | Print | Product List | Glossary On
Versions: 1 2 3 4 5 6 7 8 9 10 11 12 13 14 15 16 17 18
000
FTUS43 KFGF 261722
TAFBJI
TAF
KBJI 261722Z 2618/2718 29018G28KT P6SM BKN040
     FM270000 30017KT P6SM SCT040
     FM271500 31013KT P6SM BKN015=

USA.gov is the U.S. government's official web portal to all federal, state and local government web resources and services.